NB74W LSGG-LFLJ
Flight info
| Callsign | NB74W |
|---|---|
| Flight time | 0h 22m |
| Altitude | 18000 |
| Route | PAS/N0417F170 DCT CBY DCT LFLE DCT LAMDO DCT GEMLA |
| Aircraft | C700/M-SBDGHM1RWXY/LB2 |
Departure
| Time | 2026-04-25 19:11 |
|---|---|
| Airport | Geneva International Airport (LSGG) |
Arrival
| Time | 2026-04-25 19:34 |
|---|---|
| Airport | Courchevel Altiport (LFLJ) |
| Time | Latitude | Longitude | Altitude | Speed | Heading |
|---|---|---|---|---|---|
| 2026-04-25 18:47 | 46.23679 | 6.10012 | 1401 ft | 0 kts | 314° |
| 2026-04-25 19:04 | 46.23687 | 6.09972 | 1404 ft | 4 kts | 227° |
| 2026-04-25 19:04 | 46.23666 | 6.09992 | 1404 ft | 7 kts | 133° |
| 2026-04-25 19:05 | 46.23613 | 6.10004 | 1407 ft | 8 kts | 134° |
| 2026-04-25 19:05 | 46.23490 | 6.09882 | 1408 ft | 10 kts | 196° |
| 2026-04-25 19:05 | 46.23430 | 6.09948 | 1406 ft | 14 kts | 135° |
| 2026-04-25 19:06 | 46.23374 | 6.10027 | 1408 ft | 2 kts | 136° |
| 2026-04-25 19:06 | 46.23369 | 6.10034 | 1408 ft | 0 kts | 135° |
| 2026-04-25 19:09 | 46.23368 | 6.10035 | 1408 ft | 1 kts | 135° |
| 2026-04-25 19:09 | 46.23330 | 6.10201 | 1407 ft | 0 kts | 44° |
| 2026-04-25 19:11 | 46.23505 | 6.10450 | 1402 ft | 88 kts | 45° |
| 2026-04-25 19:11 | 46.24139 | 6.11434 | 1427 ft | 172 kts | 43° |
| 2026-04-25 19:11 | 46.25109 | 6.12832 | 2086 ft | 212 kts | 45° |
| 2026-04-25 19:12 | 46.26148 | 6.14458 | 3447 ft | 231 kts | 46° |
| 2026-04-25 19:12 | 46.27498 | 6.15995 | 3850 ft | 253 kts | 25° |
| 2026-04-25 19:12 | 46.29022 | 6.16579 | 4363 ft | 211 kts | 5° |
| 2026-04-25 19:12 | 46.30422 | 6.16161 | 4144 ft | 209 kts | 329° |
| 2026-04-25 19:13 | 46.31303 | 6.14546 | 3917 ft | 209 kts | 289° |
| 2026-04-25 19:13 | 46.31248 | 6.12516 | 3882 ft | 202 kts | 248° |
| 2026-04-25 19:13 | 46.30461 | 6.10900 | 3889 ft | 192 kts | 230° |
| 2026-04-25 19:13 | 46.29625 | 6.09464 | 3886 ft | 183 kts | 231° |
| 2026-04-25 19:14 | 46.28818 | 6.08092 | 3890 ft | 174 kts | 231° |
| 2026-04-25 19:14 | 46.28300 | 6.07225 | 3882 ft | 170 kts | 231° |
| 2026-04-25 19:14 | 46.27281 | 6.05530 | 3887 ft | 168 kts | 231° |
| 2026-04-25 19:14 | 46.26498 | 6.04225 | 3894 ft | 180 kts | 231° |
| 2026-04-25 19:15 | 46.25658 | 6.02816 | 3902 ft | 190 kts | 230° |
| 2026-04-25 19:15 | 46.24718 | 6.01411 | 3909 ft | 201 kts | 223° |
| 2026-04-25 19:15 | 46.23577 | 6.00043 | 3912 ft | 223 kts | 220° |
| 2026-04-25 19:15 | 46.22371 | 5.98594 | 3911 ft | 226 kts | 220° |
| 2026-04-25 19:16 | 46.21169 | 5.97139 | 3912 ft | 225 kts | 221° |
| 2026-04-25 19:16 | 46.19966 | 5.95690 | 3909 ft | 225 kts | 221° |
| 2026-04-25 19:16 | 46.18763 | 5.94245 | 3913 ft | 225 kts | 221° |
| 2026-04-25 19:16 | 46.17561 | 5.92807 | 3910 ft | 225 kts | 221° |
| 2026-04-25 19:17 | 46.16339 | 5.91389 | 3908 ft | 226 kts | 214° |
| 2026-04-25 19:17 | 46.14859 | 5.90642 | 3907 ft | 228 kts | 191° |
| 2026-04-25 19:17 | 46.13342 | 5.90104 | 4142 ft | 216 kts | 199° |
| 2026-04-25 19:17 | 46.11946 | 5.89277 | 4628 ft | 224 kts | 204° |
| 2026-04-25 19:18 | 46.10510 | 5.88409 | 5228 ft | 226 kts | 201° |
| 2026-04-25 19:18 | 46.09038 | 5.87583 | 5827 ft | 226 kts | 200° |
| 2026-04-25 19:18 | 46.07575 | 5.86753 | 6447 ft | 226 kts | 200° |
| 2026-04-25 19:18 | 46.06113 | 5.85920 | 7027 ft | 227 kts | 201° |
| 2026-04-25 19:19 | 46.04625 | 5.85068 | 7613 ft | 232 kts | 201° |
| 2026-04-25 19:19 | 46.03120 | 5.84211 | 8207 ft | 234 kts | 201° |
| 2026-04-25 19:19 | 46.01599 | 5.83346 | 8806 ft | 237 kts | 201° |
| 2026-04-25 19:19 | 46.00584 | 5.82767 | 9220 ft | 239 kts | 202° |
| 2026-04-25 19:20 | 45.98516 | 5.81591 | 10042 ft | 243 kts | 202° |
| 2026-04-25 19:20 | 45.96931 | 5.80690 | 10613 ft | 247 kts | 202° |
| 2026-04-25 19:20 | 45.95331 | 5.79782 | 11192 ft | 248 kts | 202° |
| 2026-04-25 19:20 | 45.93714 | 5.78864 | 11780 ft | 251 kts | 202° |
| 2026-04-25 19:21 | 45.92078 | 5.77935 | 12380 ft | 255 kts | 202° |
| 2026-04-25 19:21 | 45.88663 | 5.76503 | 13606 ft | 261 kts | 181° |
| 2026-04-25 19:21 | 45.86841 | 5.76795 | 14191 ft | 268 kts | 164° |
| 2026-04-25 19:22 | 45.85142 | 5.77820 | 14744 ft | 264 kts | 153° |
| 2026-04-25 19:22 | 45.83476 | 5.78966 | 15316 ft | 273 kts | 154° |
| 2026-04-25 19:22 | 45.80043 | 5.81292 | 16504 ft | 277 kts | 154° |
| 2026-04-25 19:23 | 45.78286 | 5.82496 | 16989 ft | 286 kts | 154° |
| 2026-04-25 19:23 | 45.74709 | 5.84930 | 17002 ft | 284 kts | 154° |
| 2026-04-25 19:23 | 45.72931 | 5.86141 | 17007 ft | 279 kts | 154° |
| 2026-04-25 19:24 | 45.71212 | 5.87331 | 16997 ft | 271 kts | 149° |
| 2026-04-25 19:24 | 45.69950 | 5.89198 | 16986 ft | 267 kts | 113° |
| 2026-04-25 19:24 | 45.68980 | 5.94327 | 16998 ft | 269 kts | 106° |
| 2026-04-25 19:25 | 45.67480 | 5.99233 | 17002 ft | 269 kts | 111° |
| 2026-04-25 19:25 | 45.66755 | 6.01693 | 17006 ft | 268 kts | 110° |
| 2026-04-25 19:25 | 45.66055 | 6.04138 | 17005 ft | 267 kts | 110° |
| 2026-04-25 19:26 | 45.65330 | 6.06608 | 17007 ft | 269 kts | 110° |
| 2026-04-25 19:26 | 45.64599 | 6.09073 | 17008 ft | 270 kts | 110° |
| 2026-04-25 19:26 | 45.63866 | 6.11550 | 17007 ft | 271 kts | 110° |
| 2026-04-25 19:26 | 45.63163 | 6.13998 | 17011 ft | 269 kts | 108° |
| 2026-04-25 19:27 | 45.62521 | 6.16500 | 17005 ft | 269 kts | 107° |
| 2026-04-25 19:27 | 45.62094 | 6.18175 | 16935 ft | 272 kts | 108° |
| 2026-04-25 19:27 | 45.61192 | 6.21525 | 16703 ft | 271 kts | 109° |
| 2026-04-25 19:27 | 45.60521 | 6.24013 | 16374 ft | 269 kts | 108° |
| 2026-04-25 19:28 | 45.59849 | 6.26535 | 15832 ft | 272 kts | 108° |
| 2026-04-25 19:28 | 45.59174 | 6.29047 | 15301 ft | 270 kts | 108° |
| 2026-04-25 19:28 | 45.58503 | 6.31547 | 14784 ft | 269 kts | 108° |
| 2026-04-25 19:28 | 45.57835 | 6.34034 | 14276 ft | 268 kts | 108° |
| 2026-04-25 19:29 | 45.57179 | 6.36470 | 13767 ft | 267 kts | 108° |
| 2026-04-25 19:29 | 45.56519 | 6.38926 | 13218 ft | 262 kts | 108° |
| 2026-04-25 19:29 | 45.55870 | 6.41326 | 12709 ft | 258 kts | 109° |
| 2026-04-25 19:29 | 45.55229 | 6.43703 | 12206 ft | 255 kts | 109° |
| 2026-04-25 19:30 | 45.54596 | 6.46055 | 11710 ft | 253 kts | 109° |
| 2026-04-25 19:30 | 45.53963 | 6.48388 | 11218 ft | 251 kts | 109° |
| 2026-04-25 19:30 | 45.53338 | 6.50700 | 10740 ft | 249 kts | 109° |
| 2026-04-25 19:30 | 45.52723 | 6.52965 | 10427 ft | 241 kts | 109° |
| 2026-04-25 19:31 | 45.52136 | 6.55136 | 10122 ft | 235 kts | 110° |
| 2026-04-25 19:31 | 45.51552 | 6.57283 | 9796 ft | 229 kts | 110° |
| 2026-04-25 19:31 | 45.50981 | 6.59383 | 9491 ft | 226 kts | 110° |
| 2026-04-25 19:31 | 45.50077 | 6.61215 | 9186 ft | 231 kts | 137° |
| 2026-04-25 19:32 | 45.48794 | 6.62605 | 8912 ft | 231 kts | 143° |
| 2026-04-25 19:32 | 45.47588 | 6.63859 | 8683 ft | 200 kts | 143° |
| 2026-04-25 19:32 | 45.46459 | 6.64891 | 8401 ft | 189 kts | 155° |
| 2026-04-25 19:32 | 45.45644 | 6.65295 | 8181 ft | 185 kts | 162° |
| 2026-04-25 19:33 | 45.44206 | 6.65950 | 7919 ft | 145 kts | 161° |
| 2026-04-25 19:33 | 45.43247 | 6.66363 | 7515 ft | 143 kts | 167° |
| 2026-04-25 19:33 | 45.42284 | 6.66449 | 7242 ft | 137 kts | 186° |
| 2026-04-25 19:33 | 45.41373 | 6.66088 | 6969 ft | 135 kts | 211° |
| 2026-04-25 19:34 | 45.40682 | 6.65239 | 6761 ft | 129 kts | 234° |
| 2026-04-25 19:34 | 45.40203 | 6.64166 | 6499 ft | 131 kts | 241° |
| 2026-04-25 19:34 | 45.39854 | 6.63678 | 6420 ft | 0 kts | 167° |
| 2026-04-25 19:34 | 45.39841 | 6.63591 | 6444 ft | 0 kts | 168° |
| 2026-04-25 19:35 | 45.39759 | 6.63502 | 6514 ft | 39 kts | 224° |
| 2026-04-25 19:35 | 45.39602 | 6.63280 | 6594 ft | 4 kts | 204° |
| 2026-04-25 19:35 | 45.39597 | 6.63287 | 6594 ft | 0 kts | 124° |
| 2026-04-25 19:35 | 45.39597 | 6.63289 | 6594 ft | 1 kts | 107° |
| 2026-04-25 19:36 | 45.39604 | 6.63298 | 6593 ft | 0 kts | 39° |
| 2026-04-25 19:36 | 45.39648 | 6.63352 | 6593 ft | 37 kts | 44° |
| 2026-04-25 19:36 | 45.40120 | 6.64082 | 6314 ft | 156 kts | 47° |
| 2026-04-25 19:36 | 45.41085 | 6.65207 | 6727 ft | 203 kts | 27° |
| 2026-04-25 19:37 | 45.42422 | 6.65508 | 6843 ft | 191 kts | 346° |
| 2026-04-25 19:37 | 45.43508 | 6.64556 | 6872 ft | 182 kts | 315° |
| 2026-04-25 19:37 | 45.44649 | 6.63884 | 6678 ft | 187 kts | 0° |
| 2026-04-25 19:37 | 45.45769 | 6.64583 | 6813 ft | 172 kts | 45° |
| 2026-04-25 19:38 | 45.46295 | 6.66033 | 6911 ft | 166 kts | 77° |
| 2026-04-25 19:38 | 45.46135 | 6.67749 | 7059 ft | 200 kts | 115° |
| 2026-04-25 19:38 | 45.45102 | 6.69158 | 7343 ft | 209 kts | 154° |
| 2026-04-25 19:38 | 45.43764 | 6.69476 | 7458 ft | 170 kts | 188° |
| 2026-04-25 19:39 | 45.42852 | 6.68815 | 7374 ft | 141 kts | 229° |
| 2026-04-25 19:39 | 45.42451 | 6.67569 | 7150 ft | 142 kts | 257° |
| 2026-04-25 19:39 | 45.41894 | 6.66372 | 6893 ft | 148 kts | 227° |
| 2026-04-25 19:39 | 45.41174 | 6.65371 | 6792 ft | 142 kts | 226° |
| 2026-04-25 19:40 | 45.40459 | 6.64429 | 6650 ft | 143 kts | 224° |
| 2026-04-25 19:40 | 45.39740 | 6.63489 | 6529 ft | 120 kts | 228° |
| 2026-04-25 19:40 | 45.39391 | 6.63233 | 6716 ft | 57 kts | 142° |
| 2026-04-25 19:40 | 45.39202 | 6.63531 | 6687 ft | 5 kts | 271° |
| 2026-04-25 19:41 | 45.39033 | 6.63495 | 6839 ft | 42 kts | 162° |
| 2026-04-25 19:41 | 45.38641 | 6.63872 | 6424 ft | 34 kts | 248° |
| 2026-04-25 19:41 | 45.38484 | 6.63797 | 6427 ft | 46 kts | 212° |
| 2026-04-25 19:41 | 45.38395 | 6.63707 | 6545 ft | 49 kts | 217° |
| 2026-04-25 19:42 | 45.38051 | 6.63549 | 6812 ft | 23 kts | 9° |
| 2026-04-25 19:42 | 45.38256 | 6.63568 | 6691 ft | 2 kts | 315° |
| 2026-04-25 19:42 | 45.38243 | 6.63581 | 6676 ft | 4 kts | 10° |
| 2026-04-25 19:42 | 45.38395 | 6.63648 | 6589 ft | 73 kts | 14° |
| 2026-04-25 19:43 | 45.38785 | 6.63978 | 6269 ft | 72 kts | 45° |
| 2026-04-25 19:43 | 45.39121 | 6.64427 | 6062 ft | 60 kts | 79° |
| 2026-04-25 19:43 | 45.39152 | 6.64512 | 6187 ft | 2 kts | 34° |
| 2026-04-25 19:43 | 45.39185 | 6.64190 | 5998 ft | 52 kts | 237° |
| 2026-04-25 19:44 | 45.39313 | 6.64205 | 5984 ft | 29 kts | 1° |
| 2026-04-25 19:44 | 45.39423 | 6.64165 | 6020 ft | 2 kts | 263° |
| 2026-04-25 19:44 | 45.39422 | 6.64180 | 6002 ft | 3 kts | 322° |
| 2026-04-25 19:44 | 45.39464 | 6.64154 | 6062 ft | 2 kts | 300° |
| 2026-04-25 19:45 | 45.39459 | 6.64172 | 6023 ft | 0 kts | 325° |
| 2026-04-25 19:45 | 45.39514 | 6.64231 | 5996 ft | 34 kts | 9° |
| 2026-04-25 19:45 | 45.39898 | 6.64423 | 5621 ft | 42 kts | 41° |
| 2026-04-25 19:45 | 45.40671 | 6.64186 | 5651 ft | 0 kts | 38° |
| 2026-04-25 19:46 | 45.40119 | 6.63937 | 6080 ft | 0 kts | 38° |
| 2026-04-25 19:46 | 45.40155 | 6.63698 | 6278 ft | 754 kts | 39° |
| 2026-04-25 19:46 | 45.40241 | 6.63873 | 6158 ft | 0 kts | 39° |
| 2026-04-25 19:46 | 45.39744 | 6.63282 | 6567 ft | 0 kts | 40° |
| 2026-04-25 19:47 | 45.39638 | 6.63345 | 6592 ft | 0 kts | 40° |